National Weather Service Raw Text Product

Displaying AFOS PIL: TAFALO Received: 2018-01-03 11:39 UTC


217 
FTUS43 KDMX 031139
TAFALO
TAF
KALO 031139Z 0312/0412 32017G25KT P6SM SKC
     FM032300 32010G14KT P6SM FEW250
     FM040800 33006KT P6SM FEW240=